Time;durP1;ratioP1;P1;durP2;ratioP2;P2;SDS_P1;SDS_P2;PMS_P1;PMS_P2;Temp;Humidity;BMP_temperature;BMP_pressure;BME280_temperature;BME280_humidity;BME280_pressure;Samples;Min_cycle;Max_cycle;Signal;HPM_P1;HPM_P2
2022/07/20 00:01:07;;;;;;;;;25.00;25.00;;;;;-145.45;100.00;57426.63;5085443;27;45202;-77
2022/07/20 00:03:32;;;;;;;;;23.00;20.33;;;;;-145.45;100.00;57426.63;5086662;27;45310;-77
2022/07/20 00:05:58;;;;;;;;;25.33;23.33;;;;;-145.45;100.00;57426.63;5083497;27;45317;-78
2022/07/20 00:11:20;;;;;;;;;28.33;22.67;;;;;-145.45;100.00;57426.63;5085118;27;45450;-77
2022/07/20 00:13:46;;;;;;;;;27.33;24.33;;;;;-145.45;100.00;57426.63;5092091;27;45348;-78
2022/07/20 00:16:12;;;;;;;;;26.00;24.67;;;;;-145.45;100.00;57426.63;5086605;27;46066;-78
2022/07/20 00:18:37;;;;;;;;;26.33;24.33;;;;;-145.45;100.00;57426.63;5088752;27;45327;-78
2022/07/20 00:21:03;;;;;;;;;24.00;22.33;;;;;-145.45;100.00;57426.63;5083631;27;45379;-78
2022/07/20 00:23:28;;;;;;;;;28.00;24.00;;;;;-145.45;100.00;57426.63;5073471;28;45947;-78
2022/07/20 00:25:54;;;;;;;;;27.33;24.00;;;;;-145.45;100.00;57426.63;5082217;27;45397;-78
2022/07/20 00:28:19;;;;;;;;;24.00;23.00;;;;;-145.45;100.00;57426.63;5077763;28;45316;-78
2022/07/20 00:30:46;;;;;;;;;27.00;25.67;;;;;-145.45;100.00;57426.63;5064034;27;45299;-79
2022/07/20 00:33:12;;;;;;;;;29.33;27.00;;;;;-145.45;100.00;57426.63;5081144;27;45260;-78
2022/07/20 00:35:37;;;;;;;;;27.67;24.00;;;;;-145.45;100.00;57426.63;5070250;28;46021;-78
2022/07/20 00:38:02;;;;;;;;;27.00;26.00;;;;;-145.45;100.00;57426.63;5095578;27;45368;-78
2022/07/20 00:40:28;;;;;;;;;24.00;24.00;;;;;-145.45;100.00;57426.63;5088025;27;45162;-79
2022/07/20 00:42:53;;;;;;;;;25.33;25.33;;;;;-145.45;100.00;57426.63;5094548;27;45216;-78
2022/07/20 00:45:18;;;;;;;;;37.33;30.67;;;;;-145.45;100.00;57426.63;5100709;27;45389;-79
2022/07/20 00:47:44;;;;;;;;;33.67;31.00;;;;;-145.45;100.00;57426.63;5093109;27;45426;-79
2022/07/20 00:50:10;;;;;;;;;30.67;28.33;;;;;-145.45;100.00;57426.63;5096952;27;45363;-79
2022/07/20 00:52:35;;;;;;;;;29.33;28.00;;;;;-145.45;100.00;57426.63;5091025;27;45430;-79
2022/07/20 00:55:01;;;;;;;;;33.00;26.33;;;;;-145.45;100.00;57426.63;5071014;27;48400;-78
2022/07/20 00:57:26;;;;;;;;;35.00;32.33;;;;;-145.45;100.00;57426.63;5093592;27;45342;-78
2022/07/20 00:59:52;;;;;;;;;47.33;40.00;;;;;-145.45;100.00;57426.63;5091388;27;45340;-77
2022/07/20 01:02:17;;;;;;;;;51.00;41.00;;;;;-145.45;100.00;57426.63;5092994;27;45429;-76
2022/07/20 01:04:43;;;;;;;;;52.00;41.33;;;;;-145.45;100.00;57426.63;5086421;27;45436;-75
2022/07/20 01:07:08;;;;;;;;;48.00;40.00;;;;;-145.45;100.00;57426.63;5090564;27;45308;-77
2022/07/20 01:09:34;;;;;;;;;50.00;41.33;;;;;-145.45;100.00;57426.63;5087459;27;45333;-76
2022/07/20 01:11:59;;;;;;;;;50.67;42.67;;;;;-145.45;100.00;57426.63;5084455;27;45284;-76
2022/07/20 01:14:24;;;;;;;;;54.67;43.33;;;;;-145.45;100.00;57426.63;5082498;27;45260;-76
2022/07/20 01:16:50;;;;;;;;;49.67;41.00;;;;;-145.45;100.00;57426.63;5076341;27;47660;-77
2022/07/20 01:19:15;;;;;;;;;50.00;41.00;;;;;-145.45;100.00;57426.63;5101250;27;45248;-78
2022/07/20 01:21:40;;;;;;;;;56.00;46.00;;;;;-145.45;100.00;57426.63;5086099;27;45320;-78
2022/07/20 01:24:10;;;;;;;;;53.00;43.00;;;;;-145.45;100.00;57426.63;5089006;27;45676;-78
2022/07/20 01:26:37;;;;;;;;;50.00;42.00;;;;;-145.45;100.00;57426.63;5086275;27;45288;-79
2022/07/20 01:29:03;;;;;;;;;55.67;44.33;;;;;-145.45;100.00;57426.63;5076506;28;45395;-80
2022/07/20 01:31:28;;;;;;;;;53.67;42.33;;;;;-145.45;100.00;57426.63;5083613;27;45344;-80
2022/07/20 01:33:54;;;;;;;;;52.33;43.67;;;;;-145.45;100.00;57426.63;5089596;27;46087;-79
2022/07/20 01:36:19;;;;;;;;;51.50;42.75;;;;;-145.45;100.00;57426.63;5066805;27;45466;-80
2022/07/20 01:38:44;;;;;;;;;57.00;44.75;;;;;-145.45;100.00;57426.63;5079491;27;45455;-79
2022/07/20 01:41:10;;;;;;;;;55.33;45.00;;;;;-145.45;100.00;57426.63;5089161;27;45881;-79
2022/07/20 01:43:35;;;;;;;;;53.25;44.00;;;;;-145.45;100.00;57426.63;5090339;27;45311;-79
2022/07/20 01:46:00;;;;;;;;;52.50;43.75;;;;;-145.45;100.00;57426.63;5092923;27;45524;-80
2022/07/20 01:48:26;;;;;;;;;56.00;47.00;;;;;-145.45;100.00;57426.63;5092589;27;46248;-79
2022/07/20 01:50:51;;;;;;;;;59.50;48.75;;;;;-145.45;100.00;57426.63;5083147;27;45269;-79
2022/07/20 01:53:16;;;;;;;;;58.00;46.00;;;;;-145.45;100.00;57426.63;5092385;27;45229;-79
2022/07/20 01:55:42;;;;;;;;;60.50;48.00;;;;;-145.45;100.00;57426.63;5083952;27;45300;-80
2022/07/20 01:58:07;;;;;;;;;57.75;45.00;;;;;-145.45;100.00;57426.63;5091877;27;45432;-78
2022/07/20 02:00:32;;;;;;;;;57.75;47.75;;;;;-145.45;100.00;57426.63;5083070;27;45514;-80
2022/07/20 02:02:58;;;;;;;;;59.25;47.75;;;;;-145.45;100.00;57426.63;5096179;27;45374;-80
2022/07/20 02:05:23;;;;;;;;;63.50;50.25;;;;;-145.45;100.00;57426.63;5082951;27;45263;-80
2022/07/20 02:07:49;;;;;;;;;59.75;46.25;;;;;-145.45;100.00;57426.63;5084541;27;45351;-80
2022/07/20 02:10:16;;;;;;;;;63.50;48.75;;;;;-145.45;100.00;57426.63;5089838;27;45371;-80
2022/07/20 02:12:41;;;;;;;;;60.00;47.50;;;;;-145.45;100.00;57426.63;5088781;27;46047;-80
2022/07/20 02:15:09;;;;;;;;;64.00;50.50;;;;;-145.45;100.00;57426.63;5079985;27;45321;-80
2022/07/20 02:17:35;;;;;;;;;65.00;51.75;;;;;-145.45;100.00;57426.63;5084166;27;45256;-79
2022/07/20 02:20:00;;;;;;;;;63.50;48.25;;;;;-145.45;100.00;57426.63;5080652;27;45814;-79
2022/07/20 02:22:27;;;;;;;;;60.00;48.25;;;;;-145.45;100.00;57426.63;5069192;27;46631;-79
2022/07/20 02:24:53;;;;;;;;;62.75;47.75;;;;;-145.45;100.00;57426.63;5082512;27;45368;-80
2022/07/20 02:27:18;;;;;;;;;62.25;48.50;;;;;-145.45;100.00;57426.63;5086491;27;45470;-80
2022/07/20 02:29:43;;;;;;;;;67.25;49.75;;;;;-145.45;100.00;57426.63;5096918;27;45594;-80
2022/07/20 02:32:09;;;;;;;;;64.00;51.25;;;;;-145.45;100.00;57426.63;5076854;28;48345;-80
2022/07/20 02:34:34;;;;;;;;;57.75;47.25;;;;;-145.45;100.00;57426.63;5065841;28;45530;-79
2022/07/20 02:37:00;;;;;;;;;58.75;46.50;;;;;-145.45;100.00;57426.63;5075809;27;45389;-79
2022/07/20 02:39:25;;;;;;;;;62.75;48.75;;;;;-145.45;100.00;57426.63;5079310;27;45418;-80
2022/07/20 02:41:51;;;;;;;;;58.25;48.50;;;;;-145.45;100.00;57426.63;5076313;27;46543;-79
2022/07/20 02:44:17;;;;;;;;;61.00;47.00;;;;;-145.45;100.00;57426.63;5089054;27;45279;-78
2022/07/20 02:46:42;;;;;;;;;64.50;50.25;;;;;-145.45;100.00;57426.63;5095701;27;45781;-80
2022/07/20 02:49:08;;;;;;;;;61.00;48.25;;;;;-145.45;100.00;57426.63;5082068;27;45146;-80
2022/07/20 02:51:33;;;;;;;;;65.25;51.50;;;;;-145.45;100.00;57426.63;5085663;27;46189;-81
2022/07/20 02:53:58;;;;;;;;;61.50;48.25;;;;;-145.45;100.00;57426.63;5081216;27;45480;-80
2022/07/20 02:56:24;;;;;;;;;59.50;49.00;;;;;-145.45;100.00;57426.63;5084826;27;45432;-81
2022/07/20 02:58:49;;;;;;;;;61.50;50.50;;;;;-145.45;100.00;57426.63;5081875;27;45331;-80
2022/07/20 03:01:15;;;;;;;;;61.25;48.25;;;;;-145.45;100.00;57426.63;5087409;27;45412;-81
2022/07/20 03:03:40;;;;;;;;;64.25;50.00;;;;;-145.45;100.00;57426.63;5075050;27;45210;-81
2022/07/20 03:06:06;;;;;;;;;59.25;47.00;;;;;-145.45;100.00;57426.63;5081825;27;45328;-81
2022/07/20 03:08:31;;;;;;;;;63.25;51.25;;;;;-145.45;100.00;57426.63;5084089;27;45237;-80
2022/07/20 03:10:56;;;;;;;;;57.50;45.00;;;;;-145.45;100.00;57426.63;5080168;27;46010;-80
2022/07/20 03:13:22;;;;;;;;;59.00;48.50;;;;;-145.45;100.00;57426.63;5083387;27;45245;-80
2022/07/20 03:15:47;;;;;;;;;63.50;50.25;;;;;-145.45;100.00;57426.63;5079438;27;45388;-80
2022/07/20 03:18:12;;;;;;;;;59.25;47.00;;;;;-145.45;100.00;57426.63;5086396;27;45421;-80
2022/07/20 03:20:38;;;;;;;;;58.00;46.75;;;;;-145.45;100.00;57426.63;5069735;27;46229;-80
2022/07/20 03:23:03;;;;;;;;;62.00;49.00;;;;;-145.45;100.00;57426.63;5090311;27;45398;-80
2022/07/20 03:25:29;;;;;;;;;61.50;49.00;;;;;-145.45;100.00;57426.63;5078985;28;45423;-80
2022/07/20 03:27:56;;;;;;;;;64.25;50.75;;;;;-145.45;100.00;57426.63;5085300;27;45436;-80
2022/07/20 03:30:22;;;;;;;;;58.25;47.50;;;;;-145.45;100.00;57426.63;5078970;27;46206;-80
2022/07/20 03:32:48;;;;;;;;;64.00;50.00;;;;;-145.45;100.00;57426.63;5089706;27;45331;-80
2022/07/20 03:35:14;;;;;;;;;64.50;49.75;;;;;-145.45;100.00;57426.63;5096692;27;45480;-80
2022/07/20 03:37:39;;;;;;;;;62.50;49.25;;;;;-145.45;100.00;57426.63;5093726;27;45465;-80
2022/07/20 03:40:06;;;;;;;;;59.75;48.50;;;;;-145.45;100.00;57426.63;5087964;27;45324;-79
2022/07/20 03:42:32;;;;;;;;;62.50;50.00;;;;;-145.45;100.00;57426.63;5089606;27;45451;-80
2022/07/20 03:44:58;;;;;;;;;57.50;47.75;;;;;-145.45;100.00;57426.63;5086888;27;45262;-79
2022/07/20 03:47:23;;;;;;;;;64.25;51.25;;;;;-145.45;100.00;57426.63;5089510;27;45265;-80
2022/07/20 03:49:50;;;;;;;;;59.50;48.25;;;;;-145.45;100.00;57426.63;5079444;27;45210;-79
2022/07/20 03:52:16;;;;;;;;;60.50;47.75;;;;;-145.45;100.00;57426.63;5084584;27;45356;-80
2022/07/20 03:54:41;;;;;;;;;58.00;46.25;;;;;-145.45;100.00;57426.63;5078763;28;45388;-80
2022/07/20 03:57:07;;;;;;;;;63.25;48.75;;;;;-145.45;100.00;57426.63;5084145;27;45446;-76
2022/07/20 03:59:33;;;;;;;;;60.00;47.50;;;;;-145.45;100.00;57426.63;5078422;28;46171;-74
2022/07/20 04:01:59;;;;;;;;;65.50;50.50;;;;;-145.45;100.00;57426.63;5073939;28;45507;-75
2022/07/20 04:04:24;;;;;;;;;62.75;47.75;;;;;-145.45;100.00;57426.63;5069436;28;45474;-76
2022/07/20 04:06:49;;;;;;;;;64.50;50.00;;;;;-145.45;100.00;57426.63;5084437;27;45525;-75
2022/07/20 04:09:43;;;;;;;;;50.33;40.00;;;;;-145.45;100.00;57426.63;5072088;28;47827;-77
2022/07/20 04:12:00;;;;;;;;;54.50;44.25;;;;;-145.45;100.00;57426.63;5084768;27;45332;-76
2022/07/20 04:14:26;;;;;;;;;54.25;44.25;;;;;-145.45;100.00;57426.63;5080732;27;46023;-75
2022/07/20 04:16:51;;;;;;;;;53.25;44.50;;;;;-145.45;100.00;57426.63;5092095;27;45290;-75
2022/07/20 04:19:16;;;;;;;;;51.25;40.75;;;;;-145.45;100.00;57426.63;5082281;27;46580;-76
2022/07/20 04:21:41;;;;;;;;;50.75;42.25;;;;;-145.45;100.00;57426.63;5076915;28;45356;-76
2022/07/20 04:24:07;;;;;;;;;48.25;39.75;;;;;-145.45;100.00;57426.63;5083033;27;45275;-76
2022/07/20 04:26:32;;;;;;;;;47.00;40.00;;;;;-145.45;100.00;57426.63;5085636;27;45372;-75
2022/07/20 04:28:57;;;;;;;;;51.25;42.25;;;;;-145.45;100.00;57426.63;5074660;27;47104;-76
2022/07/20 04:31:23;;;;;;;;;48.25;40.00;;;;;-145.45;100.00;57426.63;5083433;27;45268;-76
2022/07/20 04:33:48;;;;;;;;;50.50;39.75;;;;;-145.45;100.00;57426.63;5089881;27;45574;-76
2022/07/20 04:36:13;;;;;;;;;52.25;41.00;;;;;-145.45;100.00;57426.63;5094767;27;45295;-76
2022/07/20 04:38:39;;;;;;;;;50.75;42.00;;;;;-145.45;100.00;57426.63;5097377;27;45300;-76
2022/07/20 04:41:04;;;;;;;;;50.50;41.00;;;;;-145.45;100.00;57426.63;5086380;27;45450;-76
2022/07/20 04:43:29;;;;;;;;;38.33;34.00;;;;;-145.45;100.00;57426.63;5061500;27;45368;-76
2022/07/20 04:45:55;;;;;;;;;40.33;34.67;;;;;-145.45;100.00;57426.63;5085208;27;45518;-76
2022/07/20 04:48:20;;;;;;;;;38.67;33.00;;;;;-145.45;100.00;57426.63;5081940;27;46439;-75
2022/07/20 04:50:45;;;;;;;;;41.33;33.00;;;;;-145.45;100.00;57426.63;5071838;27;45381;-75
2022/07/20 04:53:11;;;;;;;;;41.33;35.33;;;;;-145.45;100.00;57426.63;5088274;27;45343;-77
2022/07/20 04:55:36;;;;;;;;;39.33;35.33;;;;;-145.45;100.00;57426.63;5081058;27;45520;-76
2022/07/20 04:58:01;;;;;;;;;32.33;31.00;;;;;-145.45;100.00;57426.63;5086358;27;46096;-79
2022/07/20 05:00:27;;;;;;;;;39.67;33.67;;;;;-145.45;100.00;57426.63;5095251;27;45331;-79
2022/07/20 05:02:53;;;;;;;;;38.33;32.67;;;;;-145.45;100.00;57426.63;5089907;27;45450;-79
2022/07/20 05:05:18;;;;;;;;;37.00;31.33;;;;;-145.45;100.00;57426.63;5080565;27;45380;-80
2022/07/20 05:07:44;;;;;;;;;32.50;31.50;;;;;-145.45;100.00;57426.63;5093082;27;45227;-80
2022/07/20 05:10:10;;;;;;;;;33.00;31.33;;;;;-145.45;100.00;57426.63;5083874;27;45661;-80
2022/07/20 05:12:35;;;;;;;;;32.67;31.33;;;;;-145.45;100.00;57426.63;5070292;27;45403;-80
2022/07/20 05:15:00;;;;;;;;;32.00;30.33;;;;;-145.45;100.00;57426.63;5082204;27;45510;-80
2022/07/20 05:17:26;;;;;;;;;31.00;30.00;;;;;-145.45;100.00;57426.63;5085412;27;46109;-78
2022/07/20 05:19:51;;;;;;;;;29.00;26.33;;;;;-145.45;100.00;57426.63;5080183;27;45312;-79
2022/07/20 05:22:16;;;;;;;;;34.67;30.00;;;;;-145.45;100.00;57426.63;5085348;27;45260;-79
2022/07/20 05:24:42;;;;;;;;;31.00;27.00;;;;;-145.45;100.00;57426.63;5087312;27;45339;-78
2022/07/20 05:27:07;;;;;;;;;30.67;28.67;;;;;-145.45;100.00;57426.63;5086122;27;46291;-78
2022/07/20 05:29:32;;;;;;;;;28.00;26.00;;;;;-145.45;100.00;57426.63;5080556;27;45296;-76
2022/07/20 05:31:58;;;;;;;;;26.00;26.00;;;;;-145.45;100.00;57426.63;5087073;27;45348;-76
2022/07/20 05:34:23;;;;;;;;;31.33;28.33;;;;;-145.45;100.00;57426.63;5081334;27;45356;-78
2022/07/20 05:36:48;;;;;;;;;33.00;31.00;;;;;-145.45;100.00;57426.63;5077971;27;46977;-76
2022/07/20 05:39:14;;;;;;;;;31.33;28.67;;;;;-145.45;100.00;57426.63;5094756;27;45631;-76
2022/07/20 05:41:39;;;;;;;;;29.67;26.33;;;;;-145.45;100.00;57426.63;5085224;27;45277;-76
2022/07/20 05:44:04;;;;;;;;;31.00;29.67;;;;;-145.45;100.00;57426.63;5078285;27;46564;-76
2022/07/20 05:46:30;;;;;;;;;36.00;28.33;;;;;-145.45;100.00;57426.63;5083467;27;45351;-75
2022/07/20 05:48:55;;;;;;;;;33.67;30.33;;;;;-145.45;100.00;57426.63;5084982;27;45351;-77
2022/07/20 05:51:20;;;;;;;;;40.00;32.00;;;;;-145.45;100.00;57426.63;5084517;27;45329;-78
2022/07/20 05:53:46;;;;;;;;;31.00;30.33;;;;;-145.45;100.00;57426.63;5083058;27;45343;-78
2022/07/20 05:56:11;;;;;;;;;37.67;31.33;;;;;-145.45;100.00;57426.63;5081473;27;48550;-79
2022/07/20 05:58:38;;;;;;;;;36.00;31.00;;;;;-145.45;100.00;57426.63;5087790;27;45418;-80
2022/07/20 06:01:03;;;;;;;;;34.00;29.67;;;;;-145.45;100.00;57426.63;5082050;27;45560;-81
2022/07/20 06:03:29;;;;;;;;;26.33;26.33;;;;;-145.45;100.00;57426.63;5089320;27;45380;-81
2022/07/20 06:05:54;;;;;;;;;28.67;27.67;;;;;-145.45;100.00;57426.63;5080599;27;45815;-81
2022/07/20 06:08:19;;;;;;;;;35.00;32.00;;;;;-145.45;100.00;57426.63;5085981;27;45295;-82
2022/07/20 06:10:45;;;;;;;;;35.33;29.00;;;;;-145.45;100.00;57426.63;5081475;27;45483;-83
2022/07/20 06:13:10;;;;;;;;;32.33;28.33;;;;;-145.45;100.00;57426.63;5091275;27;45442;-83
2022/07/20 06:15:36;;;;;;;;;31.00;30.00;;;;;-145.45;100.00;57426.63;5078524;27;48129;-82
2022/07/20 06:18:02;;;;;;;;;33.67;29.00;;;;;-145.45;100.00;57426.63;5093191;27;45154;-79
2022/07/20 06:20:27;;;;;;;;;28.00;24.67;;;;;-145.45;100.00;57426.63;5083085;27;45303;-76
2022/07/20 06:22:52;;;;;;;;;26.00;25.33;;;;;-145.45;100.00;57426.63;5086316;27;45378;-76
2022/07/20 06:25:19;;;;;;;;;33.67;29.33;;;;;-145.45;100.00;57426.63;5079213;27;45290;-77
2022/07/20 06:27:44;;;;;;;;;31.67;27.67;;;;;-145.45;100.00;57426.63;5091791;27;45325;-77
2022/07/20 06:30:11;;;;;;;;;27.67;24.67;;;;;-145.45;100.00;57426.63;5080315;27;45368;-77
2022/07/20 06:32:37;;;;;;;;;29.00;29.00;;;;;-145.45;100.00;57426.63;5080090;27;45351;-76
2022/07/20 06:35:04;;;;;;;;;28.33;27.33;;;;;-145.45;100.00;57426.63;5080254;27;45508;-76
2022/07/20 06:37:29;;;;;;;;;28.33;26.00;;;;;-145.45;100.00;57426.63;5074573;27;45336;-76
2022/07/20 06:39:55;;;;;;;;;28.67;27.00;;;;;-145.45;100.00;57426.63;5080244;27;45178;-75
2022/07/20 06:42:20;;;;;;;;;30.00;28.67;;;;;-145.45;100.00;57426.63;5079763;27;45468;-76
2022/07/20 06:44:46;;;;;;;;;27.00;25.67;;;;;-145.45;100.00;57426.63;5067394;27;46170;-76
2022/07/20 06:47:12;;;;;;;;;29.67;27.33;;;;;-145.45;100.00;57426.63;5081034;27;45496;-77
2022/07/20 06:49:38;;;;;;;;;31.00;29.00;;;;;-145.45;100.00;57426.63;5079864;27;45336;-78
2022/07/20 06:52:04;;;;;;;;;28.00;24.33;;;;;-145.45;100.00;57426.63;5084918;27;45530;-77
2022/07/20 06:54:29;;;;;;;;;25.33;23.67;;;;;-145.45;100.00;57426.63;5087004;27;45331;-77
2022/07/20 06:56:54;;;;;;;;;32.67;30.00;;;;;-145.45;100.00;57426.63;5091681;27;46769;-76
2022/07/20 06:59:21;;;;;;;;;27.33;27.00;;;;;-145.45;100.00;57426.63;5084116;27;45564;-77
2022/07/20 07:01:46;;;;;;;;;29.67;25.00;;;;;-145.45;100.00;57426.63;5091012;27;45446;-77
2022/07/20 07:04:12;;;;;;;;;31.00;29.00;;;;;-145.45;100.00;57426.63;5089412;27;46322;-77
2022/07/20 07:06:37;;;;;;;;;32.33;27.67;;;;;-145.45;100.00;57426.63;5087220;27;45798;-78
2022/07/20 07:09:04;;;;;;;;;25.33;23.00;;;;;-145.45;100.00;57426.63;5093462;27;45397;-77
2022/07/20 07:11:29;;;;;;;;;23.67;22.33;;;;;-145.45;100.00;57426.63;5088119;27;45828;-77
2022/07/20 07:13:54;;;;;;;;;23.33;20.33;;;;;-145.45;100.00;57426.63;5090571;27;46555;-78
2022/07/20 07:16:21;;;;;;;;;24.00;23.67;;;;;-145.45;100.00;57426.63;5087732;27;46178;-77
2022/07/20 07:18:46;;;;;;;;;26.00;25.33;;;;;-145.45;100.00;57426.63;5087611;27;45527;-77
2022/07/20 07:21:11;;;;;;;;;28.33;24.00;;;;;-145.45;100.00;57426.63;5091771;27;45820;-76
2022/07/20 07:23:37;;;;;;;;;25.33;24.67;;;;;-145.45;100.00;57426.63;5079209;27;48446;-75
2022/07/20 07:26:03;;;;;;;;;27.67;23.00;;;;;-145.45;100.00;57426.63;5093039;27;45392;-75
2022/07/20 07:28:28;;;;;;;;;28.67;27.33;;;;;-145.45;100.00;57426.63;5080173;27;45486;-74
2022/07/20 07:30:54;;;;;;;;;25.33;25.33;;;;;-145.45;100.00;57426.63;5092505;27;45571;-74
2022/07/20 07:33:25;;;;;;;;;27.00;26.00;;;;;-145.45;100.00;57426.63;5092460;27;46277;-75
2022/07/20 07:35:54;;;;;;;;;29.00;26.00;;;;;-145.45;100.00;57426.63;5084544;27;45446;-75
2022/07/20 07:38:20;;;;;;;;;28.33;27.00;;;;;-145.45;100.00;57426.63;5092061;27;46390;-75
2022/07/20 07:40:45;;;;;;;;;26.00;24.67;;;;;-145.45;100.00;57426.63;5083840;27;45462;-75
2022/07/20 07:43:10;;;;;;;;;25.00;24.33;;;;;-145.45;100.00;57426.63;5092140;27;45670;-75
2022/07/20 07:45:37;;;;;;;;;24.00;24.00;;;;;-145.45;100.00;57426.63;5077500;27;45351;-75
2022/07/20 07:48:02;;;;;;;;;29.67;27.00;;;;;-145.45;100.00;57426.63;5052281;27;47618;-75
2022/07/20 07:50:27;;;;;;;;;27.67;26.67;;;;;-145.45;100.00;57426.63;5085287;27;45481;-79
2022/07/20 07:52:53;;;;;;;;;29.67;28.00;;;;;-145.45;100.00;57426.63;5089949;27;46041;-77
2022/07/20 07:55:18;;;;;;;;;28.67;27.33;;;;;-145.45;100.00;57426.63;5078640;27;45390;-76
2022/07/20 07:57:44;;;;;;;;;30.00;27.00;;;;;-145.45;100.00;57426.63;5079884;27;45557;-78
2022/07/20 08:00:09;;;;;;;;;34.33;27.33;;;;;-145.45;100.00;57426.63;5097666;27;45571;-78
2022/07/20 08:02:35;;;;;;;;;31.00;25.00;;;;;-145.45;100.00;57426.63;5091141;27;45863;-79
2022/07/20 08:05:00;;;;;;;;;28.33;27.00;;;;;-145.45;100.00;57426.63;5084989;27;45189;-78
2022/07/20 08:07:26;;;;;;;;;30.67;27.67;;;;;-145.45;100.00;57426.63;5091408;27;45427;-79
2022/07/20 08:09:51;;;;;;;;;24.00;23.00;;;;;-145.45;100.00;57426.63;5084252;27;45321;-79
2022/07/20 08:12:17;;;;;;;;;27.33;26.00;;;;;-145.45;100.00;57426.63;5094133;27;46676;-79
2022/07/20 08:14:42;;;;;;;;;24.67;23.33;;;;;-145.45;100.00;57426.63;5083124;27;45247;-79
2022/07/20 08:17:08;;;;;;;;;24.00;23.00;;;;;-145.45;100.00;57426.63;5092396;27;45312;-79
2022/07/20 08:19:33;;;;;;;;;28.67;26.33;;;;;-145.45;100.00;57426.63;5084732;27;45570;-78
2022/07/20 08:21:59;;;;;;;;;27.67;25.00;;;;;-145.45;100.00;57426.63;5088845;27;45908;-78
2022/07/20 08:24:24;;;;;;;;;32.00;28.67;;;;;-145.45;100.00;57426.63;5086627;27;45274;-79
2022/07/20 08:26:49;;;;;;;;;25.00;25.00;;;;;-145.45;100.00;57426.63;5086601;27;45303;-79
2022/07/20 08:29:15;;;;;;;;;27.00;24.00;;;;;-145.45;100.00;57426.63;5099534;27;45394;-79
2022/07/20 08:31:40;;;;;;;;;23.00;21.00;;;;;-145.45;100.00;57426.63;5085231;27;45019;-79
2022/07/20 08:34:06;;;;;;;;;22.67;20.00;;;;;-145.45;100.00;57426.63;5092564;27;46374;-78
2022/07/20 08:36:31;;;;;;;;;22.00;20.00;;;;;-145.45;100.00;57426.63;5077583;27;45417;-78
2022/07/20 08:38:56;;;;;;;;;27.00;24.00;;;;;-145.45;100.00;57426.63;5090055;27;45486;-78
2022/07/20 08:41:23;;;;;;;;;24.00;21.00;;;;;-145.45;100.00;57426.63;5084673;27;45381;-78
2022/07/20 08:43:48;;;;;;;;;26.00;23.00;;;;;-145.45;100.00;57426.63;5090033;27;45460;-77
2022/07/20 08:46:13;;;;;;;;;22.00;21.00;;;;;-145.45;100.00;57426.63;5084905;27;45288;-77
2022/07/20 08:48:42;;;;;;;;;18.67;18.67;;;;;-145.45;100.00;57426.63;5085756;27;45426;-76
2022/07/20 08:51:08;;;;;;;;;19.33;17.33;;;;;-145.45;100.00;57426.63;5082614;27;47228;-77
2022/07/20 08:53:33;;;;;;;;;16.00;16.00;;;;;-145.45;100.00;57426.63;5086901;27;45225;-78
2022/07/20 08:55:59;;;;;;;;;16.67;16.67;;;;;-145.45;100.00;57426.63;5081800;27;45450;-77
2022/07/20 08:58:24;;;;;;;;;20.00;18.00;;;;;-145.45;100.00;57426.63;5077619;28;45656;-76
2022/07/20 09:00:50;;;;;;;;;17.00;15.67;;;;;-145.45;100.00;57426.63;5084619;27;45291;-76
2022/07/20 09:03:15;;;;;;;;;16.00;16.00;;;;;-145.45;100.00;57426.63;5099766;27;45438;-76
2022/07/20 09:05:42;;;;;;;;;22.33;19.33;;;;;-145.45;100.00;57426.63;5081997;27;45315;-77
2022/07/20 09:08:19;;;;;;;;;13.33;13.33;;;;;-145.45;100.00;57426.63;5088868;27;45521;-76
2022/07/20 09:10:46;;;;;;;;;13.33;13.33;;;;;-145.45;100.00;57426.63;5083161;27;46349;-76
2022/07/20 09:13:21;;;;;;;;;14.67;13.67;;;;;-145.45;100.00;57426.63;5087847;27;45233;-76
2022/07/20 09:15:53;;;;;;;;;14.67;13.00;;;;;-145.45;100.00;57426.63;5076557;27;45310;-76
2022/07/20 09:18:32;;;;;;;;;13.67;11.33;;;;;-145.45;100.00;57426.63;5087021;27;45511;-76
2022/07/20 09:21:07;;;;;;;;;15.33;12.67;;;;;-145.45;100.00;57426.63;5080900;27;45446;-76
2022/07/20 09:23:47;;;;;;;;;12.00;12.00;;;;;-145.45;100.00;57426.63;5084036;27;45398;-76
2022/07/20 09:26:12;;;;;;;;;9.00;9.00;;;;;-145.45;100.00;57426.63;5081480;27;45280;-76
2022/07/20 09:28:52;;;;;;;;;11.00;11.00;;;;;-145.45;100.00;57426.63;5088660;27;45321;-76
2022/07/20 09:31:25;;;;;;;;;11.00;11.00;;;;;-145.45;100.00;57426.63;5084244;27;46439;-75
2022/07/20 09:33:57;;;;;;;;;10.00;10.00;;;;;-145.45;100.00;57426.63;5087577;27;45288;-76
2022/07/20 09:36:25;;;;;;;;;12.33;11.33;;;;;-145.45;100.00;57426.63;5084949;27;45423;-77
2022/07/20 09:38:51;;;;;;;;;10.00;9.33;;;;;-145.45;100.00;57426.63;5071880;27;45731;-77
2022/07/20 09:41:26;;;;;;;;;10.33;9.00;;;;;-145.45;100.00;57426.63;5083399;27;45226;-77
2022/07/20 09:43:53;;;;;;;;;10.00;7.67;;;;;-145.45;100.00;57426.63;5083302;27;45277;-78
2022/07/20 09:46:26;;;;;;;;;11.00;10.33;;;;;-145.45;100.00;57426.63;5084168;27;45279;-77
2022/07/20 09:48:53;;;;;;;;;9.67;9.00;;;;;-145.45;100.00;57426.63;5082016;27;45506;-77
2022/07/20 09:51:27;;;;;;;;;9.67;8.00;;;;;-145.45;100.00;57426.63;5083456;27;45297;-77
2022/07/20 09:53:55;;;;;;;;;9.33;7.33;;;;;-145.45;100.00;57426.63;5068479;28;45296;-77
2022/07/20 09:56:22;;;;;;;;;11.00;9.33;;;;;-145.45;100.00;57426.63;5082862;27;45467;-77
2022/07/20 09:58:50;;;;;;;;;8.33;7.00;;;;;-145.45;100.00;57426.63;5083154;27;45533;-77
2022/07/20 10:01:21;;;;;;;;;9.00;7.67;;;;;-145.45;100.00;57426.63;5083172;27;45378;-77
2022/07/20 10:03:49;;;;;;;;;7.67;6.67;;;;;-145.45;100.00;57426.63;5075376;27;45359;-77
2022/07/20 10:06:16;;;;;;;;;7.67;7.00;;;;;-145.45;100.00;57426.63;5082203;27;45317;-75
2022/07/20 10:08:42;;;;;;;;;9.00;8.00;;;;;-145.45;100.00;57426.63;5084260;27;45217;-76
2022/07/20 10:11:08;;;;;;;;;9.00;7.00;;;;;-145.45;100.00;57426.63;5094340;27;46537;-76
2022/07/20 10:13:34;;;;;;;;;10.00;7.33;;;;;-145.45;100.00;57426.63;5087357;27;45415;-76
2022/07/20 10:16:05;;;;;;;;;8.67;8.67;;;;;-145.45;100.00;57426.63;5090979;27;45193;-76
2022/07/20 10:18:31;;;;;;;;;7.00;7.00;;;;;-145.45;100.00;57426.63;5081030;27;46133;-75
2022/07/20 10:20:57;;;;;;;;;10.00;10.00;;;;;-145.45;100.00;57426.63;5088397;27;45485;-76
2022/07/20 10:23:22;;;;;;;;;11.00;9.00;;;;;-145.45;100.00;57426.63;5093456;27;45307;-75
2022/07/20 10:25:47;;;;;;;;;9.33;7.67;;;;;-145.45;100.00;57426.63;5071955;28;45340;-75
2022/07/20 10:28:30;;;;;;;;;6.33;6.00;;;;;-145.45;100.00;57426.63;5090963;27;45370;-75
2022/07/20 10:30:58;;;;;;;;;11.33;8.33;;;;;-145.45;100.00;57426.63;5085681;27;46368;-74
2022/07/20 10:33:25;;;;;;;;;11.00;8.00;;;;;-145.45;100.00;57426.63;5093607;27;45446;-76
2022/07/20 10:35:52;;;;;;;;;10.00;10.00;;;;;-145.45;100.00;57426.63;5084575;27;45422;-76
2022/07/20 10:38:19;;;;;;;;;10.33;9.33;;;;;-145.45;100.00;57426.63;5090785;27;45465;-76
2022/07/20 10:44:21;;;;;;;;;9.00;8.00;;;;;-145.45;100.00;57426.63;5087160;27;45432;-75
2022/07/20 10:46:48;;;;;;;;;8.00;8.00;;;;;-145.45;100.00;57426.63;5089335;27;45740;-75
2022/07/20 10:49:13;;;;;;;;;12.67;11.33;;;;;-145.45;100.00;57426.63;5080511;27;45391;-74
2022/07/20 10:51:39;;;;;;;;;12.33;9.33;;;;;-145.45;100.00;57426.63;5085098;27;45276;-75
2022/07/20 10:54:33;;;;;;;;;10.33;8.00;;;;;-145.45;100.00;57426.63;5079299;27;45342;-74
2022/07/20 10:57:00;;;;;;;;;11.00;8.33;;;;;-145.45;100.00;57426.63;5068843;27;45325;-76